首页
METAR-TAF:

METAR-TAF

机场 :

Coral Harbour, 努那武特, 加拿大

纬度: 64-12N, 经度: 083-22W, 海拔: 64米

当前天气观测

该预报发布于43分钟前的01:00 UTC
风速13节,风向北转东北
温度 11°C
湿度 58%
气压 1008 hPa
能見度: 24.1公里
散云层高于4200英尺

METAR: CYZS 180100Z 02013KT 15SM SCT042 11/03 A2978 RMK SC3 SLP091

时间: 21:43 (01:43 UTC)

预报

该预报发布于1小时和3分钟前的00:40 UTC
预报有效从18日的 01点(UTC)到 18日的 13点(UTC)
风速12节,风向,有时为22节阵风
能見度: 10公里
散云层高于2000英尺
散云层高于4000英尺
成为
从 18日的 01点(UTC)到 18日的 03点(UTC)
风速12节,风向北转东北
从 18日的 1000点(UTC)
风速15节,风向,有时为25节阵风
能見度: 10公里
散云层高于1200英尺
阴天层高于3000英尺
短暂存在
从 18日的 10点(UTC)到 18日的 13点(UTC)
能見度: 8.0公里
阴天层高于1200英尺
轻雾

TAF: CYZS 180040Z 1801/1813 36012G22KT P6SM SCT020 SCT040 BECMG 1801/1803 03012KT FM181000 01015G25KT P6SM SCT012 OVC030 TEMPO 1810/1813 5SM BR OVC012 RMK NXT FCST BY 180700Z

超过4000个机场的气象观测和天气预报(METAR&TAF报告)。

可查询的气象台以黄色和红色小点在地图上表示。

将鼠标移到小点上方,可查看气象台名称。

然后点击查看天气观测和预报。

如需切换地图:点击带黑十字的绿色按钮放大地图;点击带横线的绿色按钮缩小地图;或者点击绿色箭头查看邻近地区的地图。


METAR-TAF: